TimeCST,TemperatureF,Dew PointF,Humidity,Sea Level PressureIn,VisibilityMPH,Wind Direction,Wind SpeedMPH,Gust SpeedMPH,PrecipitationIn,Events,Conditions,WindDirDegrees,DateUTC
12:15 AM,-4.0,-9.4,78,30.08,-9999.0,NNW,11.5,-,N/A,,Clear,340,2014-02-12 06:15:00
12:34 AM,-4.0,-9.4,78,30.08,-9999.0,North,11.5,-,N/A,,Clear,350,2014-02-12 06:34:00
12:55 AM,-4.0,-9.4,78,30.08,-9999.0,North,9.2,-,N/A,,Clear,360,2014-02-12 06:55:00
1:14 AM,-4.0,-9.4,78,30.08,-9999.0,North,9.2,-,N/A,,Clear,360,2014-02-12 07:14:00
1:34 AM,-5.8,-11.2,77,30.09,-9999.0,North,6.9,-,N/A,,Clear,360,2014-02-12 07:34:00
1:55 AM,-5.8,-11.2,77,30.10,-9999.0,North,8.1,-,N/A,,Clear,350,2014-02-12 07:55:00
2:14 AM,-5.8,-11.2,77,30.12,-9999.0,North,9.2,-,N/A,,Clear,350,2014-02-12 08:14:00
2:34 AM,-5.8,-11.2,77,30.13,-9999.0,NNW,9.2,-,N/A,,Clear,340,2014-02-12 08:34:00
2:55 AM,-7.6,-11.2,84,30.14,-9999.0,NNW,4.6,-,N/A,,Clear,330,2014-02-12 08:55:00
3:14 AM,-7.6,-11.2,84,30.12,-9999.0,Calm,Calm,-,N/A,,Clear,0,2014-02-12 09:14:00
3:34 AM,-7.6,-13.0,77,30.14,-9999.0,Calm,Calm,-,N/A,,Clear,0,2014-02-12 09:34:00
3:55 AM,-11.2,-16.6,77,30.14,-9999.0,Calm,Calm,-,N/A,,Clear,0,2014-02-12 09:55:00
4:14 AM,-9.4,-14.8,77,30.14,-9999.0,Calm,Calm,-,N/A,,Unknown,0,2014-02-12 10:14:00
4:35 AM,-11.2,-16.6,77,30.14,-9999.0,Calm,Calm,-,N/A,,Clear,0,2014-02-12 10:35:00
4:55 AM,-11.2,-16.6,77,30.14,-9999.0,Calm,Calm,-,N/A,,Clear,0,2014-02-12 10:55:00
5:14 AM,-11.2,-14.8,84,30.16,-9999.0,Calm,Calm,-,N/A,,Unknown,0,2014-02-12 11:14:00
5:35 AM,-11.2,-14.8,84,30.16,-9999.0,Calm,Calm,-,N/A,,Unknown,0,2014-02-12 11:35:00
5:55 AM,-11.2,-14.8,84,30.16,-9999.0,Calm,Calm,-,N/A,,Unknown,0,2014-02-12 11:55:00
6:14 AM,-11.2,-16.6,77,30.16,-9999.0,Calm,Calm,-,N/A,,Clear,0,2014-02-12 12:14:00
6:35 AM,-9.4,-14.8,77,30.17,-9999.0,South,3.5,-,N/A,,Unknown,190,2014-02-12 12:35:00
6:55 AM,-9.4,-14.8,77,30.17,-9999.0,Calm,Calm,-,N/A,,Unknown,0,2014-02-12 12:55:00
7:15 AM,-9.4,-14.8,77,30.18,-9999.0,Calm,Calm,-,N/A,,Unknown,0,2014-02-12 13:15:00
7:34 AM,-9.4,-14.8,77,30.17,-9999.0,Calm,Calm,-,N/A,,Mostly Cloudy,0,2014-02-12 13:34:00
7:54 AM,-7.6,-13.0,77,30.17,-9999.0,Calm,Calm,-,N/A,,Unknown,0,2014-02-12 13:54:00
8:15 AM,-7.6,-11.2,84,30.17,-9999.0,Calm,Calm,-,N/A,,Unknown,0,2014-02-12 14:15:00
8:35 AM,-7.6,-11.2,84,30.16,10.0,Calm,Calm,-,N/A,,Unknown,0,2014-02-12 14:35:00
8:54 AM,-5.8,-9.4,84,30.17,10.0,Calm,Calm,-,N/A,,Scattered Clouds,0,2014-02-12 14:54:00
9:15 AM,-5.8,-9.4,84,30.16,10.0,Calm,Calm,-,N/A,,Scattered Clouds,0,2014-02-12 15:15:00
9:34 AM,-4.0,-9.4,78,30.15,10.0,Calm,Calm,-,N/A,,Scattered Clouds,0,2014-02-12 15:34:00
9:54 AM,-2.2,-9.4,71,30.15,10.0,Calm,Calm,-,N/A,,Scattered Clouds,0,2014-02-12 15:54:00
10:15 AM,-2.2,-7.6,78,30.14,10.0,Calm,Calm,-,N/A,,Scattered Clouds,0,2014-02-12 16:15:00
10:34 AM,-2.2,-7.6,78,30.14,10.0,Calm,Calm,-,N/A,,Scattered Clouds,0,2014-02-12 16:34:00
10:54 AM,-0.4,-7.6,72,30.14,10.0,Calm,Calm,-,N/A,,Clear,0,2014-02-12 16:54:00
11:15 AM,-0.4,-7.6,72,30.13,10.0,Calm,Calm,-,N/A,,Clear,0,2014-02-12 17:15:00
11:34 AM,-0.4,-7.6,72,30.12,10.0,Calm,Calm,-,N/A,,Clear,0,2014-02-12 17:34:00
11:54 AM,1.4,-5.8,72,30.12,10.0,South,5.8,-,N/A,,Clear,170,2014-02-12 17:54:00
12:15 PM,1.4,-5.8,72,30.10,10.0,South,4.6,-,N/A,,Clear,190,2014-02-12 18:15:00
12:34 PM,1.4,-5.8,72,30.09,10.0,South,8.1,-,N/A,,Clear,180,2014-02-12 18:34:00
12:54 PM,1.4,-4.0,78,30.08,10.0,SSE,8.1,-,N/A,,Clear,150,2014-02-12 18:54:00
1:15 PM,3.2,-4.0,72,30.06,10.0,SSE,6.9,-,N/A,,Clear,150,2014-02-12 19:15:00
1:34 PM,3.2,-2.2,78,30.04,10.0,South,10.4,-,N/A,,Clear,190,2014-02-12 19:34:00
1:55 PM,3.2,-2.2,78,30.02,10.0,South,10.4,-,N/A,,Clear,180,2014-02-12 19:55:00
2:15 PM,5.0,-2.2,72,30.00,10.0,South,13.8,-,N/A,,Clear,180,2014-02-12 20:15:00
2:34 PM,5.0,-2.2,72,29.99,10.0,South,11.5,-,N/A,,Clear,180,2014-02-12 20:34:00
2:55 PM,5.0,-2.2,72,29.97,10.0,South,12.7,-,N/A,,Clear,170,2014-02-12 20:55:00
3:15 PM,5.0,-2.2,72,29.96,10.0,SSE,11.5,-,N/A,,Clear,160,2014-02-12 21:15:00
3:34 PM,5.0,-2.2,72,29.95,10.0,South,10.4,-,N/A,,Clear,170,2014-02-12 21:34:00
3:55 PM,5.0,-2.2,72,29.94,10.0,SSE,11.5,-,N/A,,Clear,160,2014-02-12 21:55:00
4:14 PM,5.0,-2.2,72,29.93,10.0,SSE,12.7,-,N/A,,Clear,160,2014-02-12 22:14:00
4:34 PM,5.0,-2.2,72,29.93,10.0,South,9.2,-,N/A,,Scattered Clouds,170,2014-02-12 22:34:00
4:55 PM,5.0,-2.2,72,29.91,10.0,SSE,11.5,-,N/A,,Mostly Cloudy,160,2014-02-12 22:55:00
5:14 PM,6.8,-0.4,72,29.89,10.0,SSE,8.1,-,N/A,,Overcast,160,2014-02-12 23:14:00
5:34 PM,6.8,-0.4,72,29.89,10.0,SSE,10.4,-,N/A,,Overcast,160,2014-02-12 23:34:00
5:55 PM,6.8,-0.4,72,29.87,10.0,SE,10.4,-,N/A,,Overcast,140,2014-02-12 23:55:00
6:14 PM,6.8,-0.4,72,29.84,10.0,SE,12.7,-,N/A,,Overcast,130,2014-02-13 00:14:00
6:34 PM,6.8,-0.4,72,29.83,10.0,SE,10.4,-,N/A,,Overcast,140,2014-02-13 00:34:00
6:55 PM,6.8,-0.4,72,29.81,10.0,SE,12.7,-,N/A,,Mostly Cloudy,140,2014-02-13 00:55:00
7:14 PM,6.8,-0.4,72,29.80,10.0,SE,13.8,-,N/A,,Scattered Clouds,140,2014-02-13 01:14:00
7:34 PM,6.8,-0.4,72,29.77,10.0,SE,12.7,-,N/A,,Clear,130,2014-02-13 01:34:00
7:55 PM,6.8,-0.4,72,29.75,10.0,SE,10.4,-,N/A,,Clear,130,2014-02-13 01:55:00
8:14 PM,6.8,-0.4,72,29.74,10.0,ESE,12.7,-,N/A,,Mostly Cloudy,120,2014-02-13 02:14:00
8:34 PM,8.6,-0.4,67,29.70,10.0,SE,16.1,-,N/A,,Mostly Cloudy,130,2014-02-13 02:34:00
8:55 PM,8.6,1.4,73,29.68,10.0,SE,16.1,-,N/A,,Scattered Clouds,130,2014-02-13 02:55:00
9:14 PM,8.6,1.4,73,29.66,10.0,SE,12.7,-,N/A,,Mostly Cloudy,130,2014-02-13 03:14:00
9:35 PM,10.4,1.4,67,29.61,10.0,SE,17.3,-,N/A,,Scattered Clouds,130,2014-02-13 03:35:00
9:54 PM,12.2,3.2,67,29.60,10.0,SE,17.3,-,N/A,,Scattered Clouds,140,2014-02-13 03:54:00
10:15 PM,12.2,5.0,73,29.57,10.0,SSE,20.7,-,N/A,,Mostly Cloudy,150,2014-02-13 04:15:00
10:35 PM,14.0,5.0,67,29.54,10.0,SE,19.6,-,N/A,,Overcast,140,2014-02-13 04:35:00
10:54 PM,14.0,6.8,73,29.52,10.0,SSE,19.6,-,N/A,,Mostly Cloudy,150,2014-02-13 04:54:00
11:15 PM,14.0,6.8,73,29.48,10.0,SSE,19.6,-,N/A,,Mostly Cloudy,150,2014-02-13 05:15:00
11:35 PM,15.8,6.8,68,29.47,10.0,SSE,20.7,-,N/A,,Scattered Clouds,150,2014-02-13 05:35:00
11:54 PM,15.8,8.6,73,29.45,10.0,SSE,18.4,24.2,N/A,,Mostly Cloudy,150,2014-02-13 05:54:00